sensor_id;sensor_type;location;lat;lon;timestamp;P1;durP1;ratioP1;P2;durP2;ratioP2
29422;SDS011;16399;51.686;8.684;2022-09-16T00:00:30;7.40;;;0.93;;
29422;SDS011;16399;51.686;8.684;2022-09-16T00:03:34;1.37;;;0.60;;
29422;SDS011;16399;51.686;8.684;2022-09-16T00:06:36;4.12;;;0.85;;
29422;SDS011;16399;51.686;8.684;2022-09-16T00:09:38;1.95;;;0.82;;
29422;SDS011;16399;51.686;8.684;2022-09-16T00:12:41;5.10;;;0.75;;
29422;SDS011;16399;51.686;8.684;2022-09-16T00:15:44;4.03;;;0.60;;
29422;SDS011;16399;51.686;8.684;2022-09-16T00:18:51;4.12;;;0.57;;
29422;SDS011;16399;51.686;8.684;2022-09-16T00:21:57;2.95;;;0.70;;
29422;SDS011;16399;51.686;8.684;2022-09-16T00:24:59;6.45;;;0.80;;
29422;SDS011;16399;51.686;8.684;2022-09-16T00:28:02;2.55;;;0.57;;
29422;SDS011;16399;51.686;8.684;2022-09-16T00:31:04;3.35;;;0.70;;
29422;SDS011;16399;51.686;8.684;2022-09-16T00:34:06;2.40;;;0.80;;
29422;SDS011;16399;51.686;8.684;2022-09-16T00:37:09;3.42;;;0.88;;
29422;SDS011;16399;51.686;8.684;2022-09-16T00:40:11;4.72;;;0.80;;
29422;SDS011;16399;51.686;8.684;2022-09-16T00:43:14;3.55;;;0.65;;
29422;SDS011;16399;51.686;8.684;2022-09-16T00:46:34;2.98;;;0.78;;
29422;SDS011;16399;51.686;8.684;2022-09-16T00:49:44;4.22;;;0.78;;
29422;SDS011;16399;51.686;8.684;2022-09-16T00:52:49;3.60;;;0.67;;
29422;SDS011;16399;51.686;8.684;2022-09-16T00:55:53;4.90;;;1.10;;
29422;SDS011;16399;51.686;8.684;2022-09-16T00:59:00;6.75;;;1.52;;
29422;SDS011;16399;51.686;8.684;2022-09-16T01:02:05;6.10;;;0.80;;
29422;SDS011;16399;51.686;8.684;2022-09-16T01:05:14;4.40;;;0.90;;
29422;SDS011;16399;51.686;8.684;2022-09-16T01:08:18;1.67;;;0.60;;
29422;SDS011;16399;51.686;8.684;2022-09-16T01:11:20;2.37;;;0.82;;
29422;SDS011;16399;51.686;8.684;2022-09-16T01:14:22;8.98;;;1.07;;
29422;SDS011;16399;51.686;8.684;2022-09-16T01:17:56;6.58;;;1.10;;
29422;SDS011;16399;51.686;8.684;2022-09-16T01:24:43;5.78;;;0.93;;
29422;SDS011;16399;51.686;8.684;2022-09-16T01:31:20;6.15;;;1.00;;
29422;SDS011;16399;51.686;8.684;2022-09-16T01:38:13;4.37;;;0.90;;
29422;SDS011;16399;51.686;8.684;2022-09-16T01:44:41;3.40;;;0.90;;
29422;SDS011;16399;51.686;8.684;2022-09-16T01:47:50;5.15;;;1.50;;
29422;SDS011;16399;51.686;8.684;2022-09-16T01:54:31;3.87;;;1.07;;
29422;SDS011;16399;51.686;8.684;2022-09-16T01:57:39;3.45;;;1.07;;
29422;SDS011;16399;51.686;8.684;2022-09-16T02:00:45;6.25;;;1.40;;
29422;SDS011;16399;51.686;8.684;2022-09-16T02:03:51;5.17;;;1.72;;
29422;SDS011;16399;51.686;8.684;2022-09-16T02:06:55;5.58;;;1.70;;
29422;SDS011;16399;51.686;8.684;2022-09-16T02:10:03;4.47;;;1.60;;
29422;SDS011;16399;51.686;8.684;2022-09-16T02:14:08;5.45;;;1.70;;
29422;SDS011;16399;51.686;8.684;2022-09-16T02:16:25;6.15;;;1.67;;
29422;SDS011;16399;51.686;8.684;2022-09-16T02:19:41;5.28;;;1.87;;
29422;SDS011;16399;51.686;8.684;2022-09-16T02:23:13;4.78;;;2.08;;
29422;SDS011;16399;51.686;8.684;2022-09-16T02:26:03;4.95;;;1.95;;
29422;SDS011;16399;51.686;8.684;2022-09-16T02:29:09;7.25;;;1.85;;
29422;SDS011;16399;51.686;8.684;2022-09-16T02:32:14;7.25;;;2.00;;
29422;SDS011;16399;51.686;8.684;2022-09-16T02:35:19;6.90;;;2.00;;
29422;SDS011;16399;51.686;8.684;2022-09-16T02:38:30;5.10;;;1.90;;
29422;SDS011;16399;51.686;8.684;2022-09-16T02:41:33;7.22;;;2.10;;
29422;SDS011;16399;51.686;8.684;2022-09-16T02:44:37;5.67;;;1.98;;
29422;SDS011;16399;51.686;8.684;2022-09-16T02:50:59;6.28;;;1.98;;
29422;SDS011;16399;51.686;8.684;2022-09-16T02:54:08;9.18;;;2.52;;
29422;SDS011;16399;51.686;8.684;2022-09-16T02:57:12;6.00;;;2.00;;
29422;SDS011;16399;51.686;8.684;2022-09-16T03:00:15;9.43;;;2.35;;
29422;SDS011;16399;51.686;8.684;2022-09-16T03:03:18;5.60;;;2.42;;
29422;SDS011;16399;51.686;8.684;2022-09-16T03:06:21;5.87;;;1.72;;
29422;SDS011;16399;51.686;8.684;2022-09-16T03:09:25;8.70;;;2.40;;
29422;SDS011;16399;51.686;8.684;2022-09-16T03:12:36;5.10;;;1.80;;
29422;SDS011;16399;51.686;8.684;2022-09-16T03:22:21;4.72;;;1.90;;
29422;SDS011;16399;51.686;8.684;2022-09-16T03:25:51;5.37;;;1.85;;
29422;SDS011;16399;51.686;8.684;2022-09-16T03:32:17;7.92;;;2.20;;
29422;SDS011;16399;51.686;8.684;2022-09-16T03:35:22;7.85;;;2.30;;
29422;SDS011;16399;51.686;8.684;2022-09-16T03:38:35;8.20;;;2.65;;
29422;SDS011;16399;51.686;8.684;2022-09-16T03:41:39;5.20;;;2.25;;
29422;SDS011;16399;51.686;8.684;2022-09-16T03:44:41;8.38;;;2.52;;
29422;SDS011;16399;51.686;8.684;2022-09-16T03:47:44;4.83;;;2.50;;
29422;SDS011;16399;51.686;8.684;2022-09-16T03:50:49;6.12;;;2.70;;
29422;SDS011;16399;51.686;8.684;2022-09-16T03:53:51;9.55;;;2.55;;
29422;SDS011;16399;51.686;8.684;2022-09-16T03:56:54;6.90;;;2.42;;
29422;SDS011;16399;51.686;8.684;2022-09-16T03:59:56;8.03;;;2.55;;
29422;SDS011;16399;51.686;8.684;2022-09-16T04:02:59;7.20;;;2.40;;
29422;SDS011;16399;51.686;8.684;2022-09-16T04:06:02;5.97;;;2.30;;
29422;SDS011;16399;51.686;8.684;2022-09-16T04:09:04;6.95;;;2.75;;
29422;SDS011;16399;51.686;8.684;2022-09-16T04:12:07;7.97;;;2.25;;
29422;SDS011;16399;51.686;8.684;2022-09-16T04:15:10;7.53;;;2.55;;
29422;SDS011;16399;51.686;8.684;2022-09-16T04:18:12;5.40;;;2.25;;
29422;SDS011;16399;51.686;8.684;2022-09-16T04:21:15;4.83;;;2.27;;
29422;SDS011;16399;51.686;8.684;2022-09-16T04:24:17;6.37;;;2.20;;
29422;SDS011;16399;51.686;8.684;2022-09-16T04:27:20;5.60;;;2.10;;
29422;SDS011;16399;51.686;8.684;2022-09-16T04:30:22;6.42;;;2.00;;
29422;SDS011;16399;51.686;8.684;2022-09-16T04:33:26;8.48;;;2.02;;
29422;SDS011;16399;51.686;8.684;2022-09-16T04:39:32;4.75;;;2.20;;
29422;SDS011;16399;51.686;8.684;2022-09-16T04:42:34;8.68;;;2.87;;
29422;SDS011;16399;51.686;8.684;2022-09-16T04:45:36;5.95;;;2.70;;
29422;SDS011;16399;51.686;8.684;2022-09-16T04:48:38;10.65;;;3.35;;
29422;SDS011;16399;51.686;8.684;2022-09-16T04:51:41;7.12;;;3.02;;
29422;SDS011;16399;51.686;8.684;2022-09-16T04:54:43;8.78;;;3.50;;
29422;SDS011;16399;51.686;8.684;2022-09-16T04:57:46;14.40;;;3.58;;
29422;SDS011;16399;51.686;8.684;2022-09-16T05:00:48;10.00;;;3.22;;
29422;SDS011;16399;51.686;8.684;2022-09-16T05:03:53;8.75;;;3.52;;
29422;SDS011;16399;51.686;8.684;2022-09-16T05:06:56;11.80;;;3.90;;
29422;SDS011;16399;51.686;8.684;2022-09-16T05:09:58;8.15;;;3.70;;
29422;SDS011;16399;51.686;8.684;2022-09-16T05:13:01;7.45;;;4.05;;
29422;SDS011;16399;51.686;8.684;2022-09-16T05:16:07;11.83;;;4.60;;
29422;SDS011;16399;51.686;8.684;2022-09-16T05:19:11;11.38;;;4.85;;
29422;SDS011;16399;51.686;8.684;2022-09-16T05:25:17;9.53;;;4.42;;
29422;SDS011;16399;51.686;8.684;2022-09-16T05:28:20;9.83;;;4.53;;
29422;SDS011;16399;51.686;8.684;2022-09-16T05:31:24;13.05;;;4.58;;
29422;SDS011;16399;51.686;8.684;2022-09-16T05:34:27;11.12;;;4.58;;
29422;SDS011;16399;51.686;8.684;2022-09-16T05:37:30;10.35;;;4.83;;
29422;SDS011;16399;51.686;8.684;2022-09-16T05:40:32;11.68;;;4.45;;
29422;SDS011;16399;51.686;8.684;2022-09-16T05:43:34;10.28;;;4.70;;
29422;SDS011;16399;51.686;8.684;2022-09-16T05:46:37;14.90;;;4.30;;
29422;SDS011;16399;51.686;8.684;2022-09-16T05:49:40;12.60;;;4.03;;
29422;SDS011;16399;51.686;8.684;2022-09-16T05:52:43;10.05;;;5.03;;
29422;SDS011;16399;51.686;8.684;2022-09-16T05:55:58;9.65;;;3.87;;
29422;SDS011;16399;51.686;8.684;2022-09-16T05:59:02;11.30;;;3.80;;
29422;SDS011;16399;51.686;8.684;2022-09-16T06:02:05;8.20;;;3.50;;
29422;SDS011;16399;51.686;8.684;2022-09-16T06:05:09;10.05;;;3.80;;
29422;SDS011;16399;51.686;8.684;2022-09-16T06:08:11;10.20;;;3.45;;
29422;SDS011;16399;51.686;8.684;2022-09-16T06:11:13;8.63;;;3.27;;
29422;SDS011;16399;51.686;8.684;2022-09-16T06:14:16;6.55;;;3.27;;
29422;SDS011;16399;51.686;8.684;2022-09-16T06:17:21;10.45;;;3.00;;
29422;SDS011;16399;51.686;8.684;2022-09-16T06:20:23;7.60;;;3.15;;
29422;SDS011;16399;51.686;8.684;2022-09-16T06:23:26;8.50;;;2.72;;
29422;SDS011;16399;51.686;8.684;2022-09-16T06:26:28;8.75;;;2.62;;
29422;SDS011;16399;51.686;8.684;2022-09-16T06:29:31;4.87;;;2.22;;
29422;SDS011;16399;51.686;8.684;2022-09-16T06:32:33;6.60;;;2.22;;
29422;SDS011;16399;51.686;8.684;2022-09-16T06:35:35;7.10;;;2.02;;
29422;SDS011;16399;51.686;8.684;2022-09-16T06:38:37;8.88;;;2.42;;
29422;SDS011;16399;51.686;8.684;2022-09-16T06:41:40;7.10;;;2.42;;
29422;SDS011;16399;51.686;8.684;2022-09-16T06:44:42;8.78;;;2.35;;
29422;SDS011;16399;51.686;8.684;2022-09-16T06:47:44;5.25;;;1.77;;
29422;SDS011;16399;51.686;8.684;2022-09-16T06:50:47;7.58;;;2.17;;
29422;SDS011;16399;51.686;8.684;2022-09-16T06:53:49;8.68;;;1.90;;
29422;SDS011;16399;51.686;8.684;2022-09-16T06:56:52;8.55;;;2.02;;
29422;SDS011;16399;51.686;8.684;2022-09-16T06:59:55;7.00;;;2.70;;
29422;SDS011;16399;51.686;8.684;2022-09-16T07:02:57;7.00;;;2.33;;
29422;SDS011;16399;51.686;8.684;2022-09-16T07:06:01;6.85;;;2.17;;
29422;SDS011;16399;51.686;8.684;2022-09-16T07:09:03;8.13;;;2.40;;
29422;SDS011;16399;51.686;8.684;2022-09-16T07:12:06;5.92;;;1.92;;
29422;SDS011;16399;51.686;8.684;2022-09-16T07:15:09;6.42;;;2.00;;
29422;SDS011;16399;51.686;8.684;2022-09-16T07:18:11;8.03;;;2.00;;
29422;SDS011;16399;51.686;8.684;2022-09-16T07:21:19;6.08;;;2.00;;
29422;SDS011;16399;51.686;8.684;2022-09-16T07:24:18;5.58;;;1.98;;
29422;SDS011;16399;51.686;8.684;2022-09-16T07:27:20;6.20;;;2.42;;
29422;SDS011;16399;51.686;8.684;2022-09-16T07:30:23;6.90;;;2.15;;
29422;SDS011;16399;51.686;8.684;2022-09-16T07:33:37;9.08;;;2.10;;
29422;SDS011;16399;51.686;8.684;2022-09-16T07:36:43;6.15;;;2.20;;
29422;SDS011;16399;51.686;8.684;2022-09-16T07:42:48;8.13;;;2.10;;
29422;SDS011;16399;51.686;8.684;2022-09-16T07:45:56;9.38;;;2.37;;
29422;SDS011;16399;51.686;8.684;2022-09-16T07:49:00;9.30;;;2.77;;
29422;SDS011;16399;51.686;8.684;2022-09-16T07:52:03;6.30;;;2.42;;
29422;SDS011;16399;51.686;8.684;2022-09-16T07:55:06;5.55;;;2.10;;
29422;SDS011;16399;51.686;8.684;2022-09-16T07:58:09;5.83;;;1.77;;
29422;SDS011;16399;51.686;8.684;2022-09-16T08:01:12;5.10;;;1.60;;
29422;SDS011;16399;51.686;8.684;2022-09-16T08:04:16;3.15;;;0.95;;
29422;SDS011;16399;51.686;8.684;2022-09-16T08:07:19;4.47;;;1.15;;
29422;SDS011;16399;51.686;8.684;2022-09-16T08:10:23;2.52;;;0.82;;
29422;SDS011;16399;51.686;8.684;2022-09-16T08:13:26;3.55;;;1.05;;
29422;SDS011;16399;51.686;8.684;2022-09-16T08:16:29;4.92;;;0.95;;
29422;SDS011;16399;51.686;8.684;2022-09-16T08:19:32;5.70;;;1.50;;
29422;SDS011;16399;51.686;8.684;2022-09-16T08:22:34;4.22;;;1.20;;
29422;SDS011;16399;51.686;8.684;2022-09-16T08:25:36;3.83;;;1.12;;
29422;SDS011;16399;51.686;8.684;2022-09-16T08:28:39;6.60;;;1.45;;
29422;SDS011;16399;51.686;8.684;2022-09-16T08:34:45;4.17;;;1.00;;
29422;SDS011;16399;51.686;8.684;2022-09-16T08:37:48;2.67;;;0.95;;
29422;SDS011;16399;51.686;8.684;2022-09-16T08:40:50;2.90;;;0.98;;
29422;SDS011;16399;51.686;8.684;2022-09-16T08:44:02;3.77;;;1.07;;
29422;SDS011;16399;51.686;8.684;2022-09-16T08:50:40;5.03;;;1.12;;
29422;SDS011;16399;51.686;8.684;2022-09-16T08:53:45;2.87;;;1.15;;
29422;SDS011;16399;51.686;8.684;2022-09-16T08:57:07;6.25;;;1.20;;
29422;SDS011;16399;51.686;8.684;2022-09-16T09:00:13;6.92;;;1.10;;
29422;SDS011;16399;51.686;8.684;2022-09-16T09:03:43;3.98;;;1.00;;
29422;SDS011;16399;51.686;8.684;2022-09-16T09:06:58;3.42;;;1.00;;
29422;SDS011;16399;51.686;8.684;2022-09-16T09:20:17;4.58;;;1.02;;
29422;SDS011;16399;51.686;8.684;2022-09-16T09:23:43;6.90;;;1.00;;
29422;SDS011;16399;51.686;8.684;2022-09-16T09:27:13;5.58;;;0.93;;
29422;SDS011;16399;51.686;8.684;2022-09-16T09:30:21;6.55;;;1.10;;
29422;SDS011;16399;51.686;8.684;2022-09-16T09:33:51;3.60;;;0.90;;
29422;SDS011;16399;51.686;8.684;2022-09-16T09:36:39;3.45;;;0.88;;
29422;SDS011;16399;51.686;8.684;2022-09-16T09:39:59;2.90;;;0.70;;
29422;SDS011;16399;51.686;8.684;2022-09-16T09:43:23;3.30;;;0.70;;
29422;SDS011;16399;51.686;8.684;2022-09-16T09:46:39;5.00;;;0.90;;
29422;SDS011;16399;51.686;8.684;2022-09-16T09:49:43;5.70;;;1.65;;
29422;SDS011;16399;51.686;8.684;2022-09-16T09:52:58;7.60;;;1.00;;
29422;SDS011;16399;51.686;8.684;2022-09-16T09:59:40;5.65;;;0.90;;
29422;SDS011;16399;51.686;8.684;2022-09-16T10:02:47;4.87;;;0.90;;
29422;SDS011;16399;51.686;8.684;2022-09-16T10:05:50;2.42;;;0.60;;
29422;SDS011;16399;51.686;8.684;2022-09-16T10:08:53;3.65;;;1.10;;
29422;SDS011;16399;51.686;8.684;2022-09-16T10:11:57;2.15;;;0.80;;
29422;SDS011;16399;51.686;8.684;2022-09-16T10:15:01;3.12;;;0.72;;
29422;SDS011;16399;51.686;8.684;2022-09-16T10:21:24;5.33;;;0.72;;
29422;SDS011;16399;51.686;8.684;2022-09-16T10:24:29;5.33;;;1.02;;
29422;SDS011;16399;51.686;8.684;2022-09-16T10:27:34;7.58;;;1.30;;
29422;SDS011;16399;51.686;8.684;2022-09-16T10:30:44;5.47;;;0.93;;
29422;SDS011;16399;51.686;8.684;2022-09-16T10:33:48;6.05;;;1.05;;
29422;SDS011;16399;51.686;8.684;2022-09-16T10:37:03;5.00;;;0.80;;
29422;SDS011;16399;51.686;8.684;2022-09-16T10:40:02;5.28;;;0.80;;
29422;SDS011;16399;51.686;8.684;2022-09-16T10:43:12;7.75;;;1.45;;
29422;SDS011;16399;51.686;8.684;2022-09-16T10:46:13;5.22;;;1.20;;
29422;SDS011;16399;51.686;8.684;2022-09-16T10:49:16;6.87;;;0.85;;
29422;SDS011;16399;51.686;8.684;2022-09-16T10:52:26;5.70;;;0.98;;
29422;SDS011;16399;51.686;8.684;2022-09-16T10:55:31;5.03;;;0.90;;
29422;SDS011;16399;51.686;8.684;2022-09-16T10:58:38;5.40;;;1.10;;
29422;SDS011;16399;51.686;8.684;2022-09-16T11:01:53;7.95;;;1.10;;
29422;SDS011;16399;51.686;8.684;2022-09-16T11:05:11;5.65;;;0.80;;
29422;SDS011;16399;51.686;8.684;2022-09-16T11:08:18;2.85;;;0.72;;
29422;SDS011;16399;51.686;8.684;2022-09-16T11:15:06;7.25;;;1.20;;
29422;SDS011;16399;51.686;8.684;2022-09-16T11:18:17;3.47;;;1.00;;
29422;SDS011;16399;51.686;8.684;2022-09-16T11:28:42;3.15;;;0.70;;
29422;SDS011;16399;51.686;8.684;2022-09-16T11:31:30;9.85;;;1.20;;
29422;SDS011;16399;51.686;8.684;2022-09-16T11:34:39;3.70;;;0.85;;
29422;SDS011;16399;51.686;8.684;2022-09-16T11:37:46;5.00;;;0.95;;
29422;SDS011;16399;51.686;8.684;2022-09-16T11:40:52;3.83;;;0.90;;
29422;SDS011;16399;51.686;8.684;2022-09-16T11:44:01;4.15;;;0.85;;
29422;SDS011;16399;51.686;8.684;2022-09-16T11:47:37;4.00;;;0.95;;
29422;SDS011;16399;51.686;8.684;2022-09-16T11:50:44;5.17;;;1.37;;
29422;SDS011;16399;51.686;8.684;2022-09-16T11:57:26;8.83;;;0.82;;
29422;SDS011;16399;51.686;8.684;2022-09-16T12:00:33;4.60;;;1.22;;
29422;SDS011;16399;51.686;8.684;2022-09-16T12:03:43;4.00;;;0.85;;
29422;SDS011;16399;51.686;8.684;2022-09-16T12:06:57;8.88;;;1.20;;
29422;SDS011;16399;51.686;8.684;2022-09-16T12:10:04;3.87;;;0.72;;
29422;SDS011;16399;51.686;8.684;2022-09-16T12:13:44;7.62;;;1.00;;
29422;SDS011;16399;51.686;8.684;2022-09-16T12:16:45;4.55;;;0.82;;
29422;SDS011;16399;51.686;8.684;2022-09-16T12:19:59;6.58;;;1.22;;
29422;SDS011;16399;51.686;8.684;2022-09-16T12:26:24;13.70;;;1.72;;
29422;SDS011;16399;51.686;8.684;2022-09-16T12:29:51;5.35;;;0.80;;
29422;SDS011;16399;51.686;8.684;2022-09-16T12:36:04;8.05;;;1.05;;
29422;SDS011;16399;51.686;8.684;2022-09-16T12:39:07;3.58;;;0.80;;
29422;SDS011;16399;51.686;8.684;2022-09-16T12:45:38;1.77;;;0.62;;
29422;SDS011;16399;51.686;8.684;2022-09-16T12:48:45;3.70;;;0.80;;
29422;SDS011;16399;51.686;8.684;2022-09-16T12:55:17;5.92;;;0.80;;
29422;SDS011;16399;51.686;8.684;2022-09-16T12:58:30;4.37;;;1.30;;
29422;SDS011;16399;51.686;8.684;2022-09-16T13:01:50;7.58;;;1.00;;
29422;SDS011;16399;51.686;8.684;2022-09-16T13:04:55;4.05;;;0.75;;
29422;SDS011;16399;51.686;8.684;2022-09-16T13:08:02;6.58;;;0.68;;
29422;SDS011;16399;51.686;8.684;2022-09-16T13:11:06;3.35;;;0.60;;
29422;SDS011;16399;51.686;8.684;2022-09-16T13:14:18;3.45;;;0.80;;
29422;SDS011;16399;51.686;8.684;2022-09-16T13:17:28;4.90;;;0.80;;
29422;SDS011;16399;51.686;8.684;2022-09-16T13:20:36;4.28;;;0.90;;
29422;SDS011;16399;51.686;8.684;2022-09-16T13:23:44;6.42;;;1.00;;
29422;SDS011;16399;51.686;8.684;2022-09-16T13:26:48;4.67;;;0.98;;
29422;SDS011;16399;51.686;8.684;2022-09-16T13:29:51;8.05;;;1.00;;
29422;SDS011;16399;51.686;8.684;2022-09-16T13:39:27;4.72;;;1.07;;
29422;SDS011;16399;51.686;8.684;2022-09-16T13:42:31;2.27;;;0.70;;
29422;SDS011;16399;51.686;8.684;2022-09-16T13:45:35;3.12;;;0.70;;
29422;SDS011;16399;51.686;8.684;2022-09-16T13:48:43;6.28;;;0.90;;
29422;SDS011;16399;51.686;8.684;2022-09-16T13:51:47;6.42;;;0.90;;
29422;SDS011;16399;51.686;8.684;2022-09-16T13:54:52;1.52;;;0.60;;
29422;SDS011;16399;51.686;8.684;2022-09-16T14:01:21;2.87;;;0.70;;
29422;SDS011;16399;51.686;8.684;2022-09-16T14:04:33;2.75;;;0.70;;
29422;SDS011;16399;51.686;8.684;2022-09-16T14:07:46;5.72;;;0.80;;
29422;SDS011;16399;51.686;8.684;2022-09-16T14:11:00;7.67;;;0.70;;
29422;SDS011;16399;51.686;8.684;2022-09-16T14:14:16;3.60;;;0.68;;
29422;SDS011;16399;51.686;8.684;2022-09-16T14:17:18;5.15;;;0.80;;
29422;SDS011;16399;51.686;8.684;2022-09-16T14:20:21;8.70;;;0.85;;
29422;SDS011;16399;51.686;8.684;2022-09-16T14:23:26;4.60;;;0.60;;
29422;SDS011;16399;51.686;8.684;2022-09-16T14:26:30;2.70;;;0.60;;
29422;SDS011;16399;51.686;8.684;2022-09-16T14:29:32;1.85;;;0.65;;
29422;SDS011;16399;51.686;8.684;2022-09-16T14:32:35;2.27;;;0.60;;
29422;SDS011;16399;51.686;8.684;2022-09-16T14:35:38;6.08;;;0.82;;
29422;SDS011;16399;51.686;8.684;2022-09-16T14:38:43;2.50;;;0.57;;
29422;SDS011;16399;51.686;8.684;2022-09-16T14:41:55;3.75;;;0.80;;
29422;SDS011;16399;51.686;8.684;2022-09-16T14:44:59;2.83;;;0.55;;
29422;SDS011;16399;51.686;8.684;2022-09-16T14:48:03;2.70;;;0.40;;
29422;SDS011;16399;51.686;8.684;2022-09-16T14:51:15;2.85;;;0.75;;
29422;SDS011;16399;51.686;8.684;2022-09-16T14:54:20;4.65;;;0.80;;
29422;SDS011;16399;51.686;8.684;2022-09-16T14:57:20;2.65;;;0.80;;
29422;SDS011;16399;51.686;8.684;2022-09-16T15:00:28;4.47;;;0.62;;
29422;SDS011;16399;51.686;8.684;2022-09-16T15:03:36;4.35;;;0.70;;
29422;SDS011;16399;51.686;8.684;2022-09-16T15:06:46;5.60;;;0.80;;
29422;SDS011;16399;51.686;8.684;2022-09-16T15:09:55;3.50;;;0.88;;
29422;SDS011;16399;51.686;8.684;2022-09-16T15:13:04;7.53;;;0.80;;
29422;SDS011;16399;51.686;8.684;2022-09-16T15:16:15;5.37;;;1.10;;
29422;SDS011;16399;51.686;8.684;2022-09-16T15:19:21;5.28;;;1.00;;
29422;SDS011;16399;51.686;8.684;2022-09-16T15:22:27;8.93;;;1.05;;
29422;SDS011;16399;51.686;8.684;2022-09-16T15:25:30;6.97;;;1.10;;
29422;SDS011;16399;51.686;8.684;2022-09-16T15:31:37;4.58;;;0.78;;
29422;SDS011;16399;51.686;8.684;2022-09-16T15:34:40;4.67;;;0.85;;
29422;SDS011;16399;51.686;8.684;2022-09-16T15:37:43;5.05;;;1.00;;
29422;SDS011;16399;51.686;8.684;2022-09-16T15:40:46;5.83;;;1.15;;
29422;SDS011;16399;51.686;8.684;2022-09-16T15:43:48;4.00;;;1.20;;
29422;SDS011;16399;51.686;8.684;2022-09-16T15:46:50;3.90;;;0.68;;
29422;SDS011;16399;51.686;8.684;2022-09-16T15:50:15;10.63;;;0.95;;
29422;SDS011;16399;51.686;8.684;2022-09-16T15:56:27;3.30;;;1.00;;
29422;SDS011;16399;51.686;8.684;2022-09-16T15:59:37;9.10;;;1.02;;
29422;SDS011;16399;51.686;8.684;2022-09-16T16:02:49;5.08;;;0.78;;
29422;SDS011;16399;51.686;8.684;2022-09-16T16:05:50;6.08;;;1.05;;
29422;SDS011;16399;51.686;8.684;2022-09-16T16:08:53;8.68;;;1.10;;
29422;SDS011;16399;51.686;8.684;2022-09-16T16:12:01;5.87;;;0.93;;
29422;SDS011;16399;51.686;8.684;2022-09-16T16:15:09;4.33;;;1.00;;
29422;SDS011;16399;51.686;8.684;2022-09-16T16:18:13;7.83;;;1.10;;
29422;SDS011;16399;51.686;8.684;2022-09-16T16:21:15;6.00;;;1.32;;
29422;SDS011;16399;51.686;8.684;2022-09-16T16:24:17;5.62;;;1.20;;
29422;SDS011;16399;51.686;8.684;2022-09-16T16:27:20;7.20;;;1.32;;
29422;SDS011;16399;51.686;8.684;2022-09-16T16:30:22;6.55;;;1.15;;
29422;SDS011;16399;51.686;8.684;2022-09-16T16:33:24;5.62;;;0.98;;
29422;SDS011;16399;51.686;8.684;2022-09-16T16:36:26;8.48;;;0.90;;
29422;SDS011;16399;51.686;8.684;2022-09-16T16:39:29;8.40;;;0.78;;
29422;SDS011;16399;51.686;8.684;2022-09-16T16:42:32;9.38;;;1.25;;
29422;SDS011;16399;51.686;8.684;2022-09-16T16:45:35;4.47;;;1.05;;
29422;SDS011;16399;51.686;8.684;2022-09-16T16:48:37;9.03;;;1.15;;
29422;SDS011;16399;51.686;8.684;2022-09-16T16:51:39;4.65;;;1.10;;
29422;SDS011;16399;51.686;8.684;2022-09-16T16:54:42;5.75;;;0.90;;
29422;SDS011;16399;51.686;8.684;2022-09-16T16:57:45;5.30;;;1.00;;
29422;SDS011;16399;51.686;8.684;2022-09-16T17:00:47;13.72;;;1.22;;
29422;SDS011;16399;51.686;8.684;2022-09-16T17:03:50;5.55;;;1.57;;
29422;SDS011;16399;51.686;8.684;2022-09-16T17:06:53;10.05;;;1.15;;
29422;SDS011;16399;51.686;8.684;2022-09-16T17:09:57;10.37;;;1.40;;
29422;SDS011;16399;51.686;8.684;2022-09-16T17:12:59;6.17;;;1.52;;
29422;SDS011;16399;51.686;8.684;2022-09-16T17:16:02;5.83;;;0.85;;
29422;SDS011;16399;51.686;8.684;2022-09-16T17:19:04;8.88;;;0.95;;
29422;SDS011;16399;51.686;8.684;2022-09-16T17:22:07;8.63;;;1.42;;
29422;SDS011;16399;51.686;8.684;2022-09-16T17:25:09;5.20;;;1.45;;
29422;SDS011;16399;51.686;8.684;2022-09-16T17:28:11;6.50;;;1.80;;
29422;SDS011;16399;51.686;8.684;2022-09-16T17:31:15;3.90;;;1.75;;
29422;SDS011;16399;51.686;8.684;2022-09-16T17:34:20;6.70;;;1.77;;
29422;SDS011;16399;51.686;8.684;2022-09-16T17:37:23;6.55;;;2.17;;
29422;SDS011;16399;51.686;8.684;2022-09-16T17:40:25;6.53;;;2.20;;
29422;SDS011;16399;51.686;8.684;2022-09-16T17:43:27;5.95;;;2.00;;
29422;SDS011;16399;51.686;8.684;2022-09-16T17:46:31;5.25;;;2.15;;
29422;SDS011;16399;51.686;8.684;2022-09-16T17:49:34;4.83;;;1.80;;
29422;SDS011;16399;51.686;8.684;2022-09-16T17:52:36;4.33;;;1.90;;
29422;SDS011;16399;51.686;8.684;2022-09-16T17:55:38;7.58;;;2.05;;
29422;SDS011;16399;51.686;8.684;2022-09-16T17:58:46;4.08;;;1.55;;
29422;SDS011;16399;51.686;8.684;2022-09-16T18:01:46;7.22;;;1.70;;
29422;SDS011;16399;51.686;8.684;2022-09-16T18:04:50;3.47;;;1.40;;
29422;SDS011;16399;51.686;8.684;2022-09-16T18:07:52;7.78;;;1.95;;
29422;SDS011;16399;51.686;8.684;2022-09-16T18:10:54;8.43;;;1.80;;
29422;SDS011;16399;51.686;8.684;2022-09-16T18:13:58;6.05;;;1.30;;
29422;SDS011;16399;51.686;8.684;2022-09-16T18:17:01;4.80;;;1.10;;
29422;SDS011;16399;51.686;8.684;2022-09-16T18:20:04;3.62;;;1.20;;
29422;SDS011;16399;51.686;8.684;2022-09-16T18:23:06;6.78;;;1.27;;
29422;SDS011;16399;51.686;8.684;2022-09-16T18:26:10;8.38;;;1.42;;
29422;SDS011;16399;51.686;8.684;2022-09-16T18:29:14;4.10;;;1.40;;
29422;SDS011;16399;51.686;8.684;2022-09-16T18:32:17;10.28;;;1.55;;
29422;SDS011;16399;51.686;8.684;2022-09-16T18:35:19;4.00;;;1.20;;
29422;SDS011;16399;51.686;8.684;2022-09-16T18:38:21;6.33;;;1.40;;
29422;SDS011;16399;51.686;8.684;2022-09-16T18:41:33;5.72;;;1.45;;
29422;SDS011;16399;51.686;8.684;2022-09-16T18:44:33;5.53;;;1.07;;
29422;SDS011;16399;51.686;8.684;2022-09-16T18:47:35;6.72;;;1.10;;
29422;SDS011;16399;51.686;8.684;2022-09-16T18:50:37;5.20;;;1.17;;
29422;SDS011;16399;51.686;8.684;2022-09-16T18:53:40;9.83;;;3.55;;
29422;SDS011;16399;51.686;8.684;2022-09-16T18:56:42;4.42;;;1.00;;
29422;SDS011;16399;51.686;8.684;2022-09-16T18:59:45;3.52;;;1.02;;
29422;SDS011;16399;51.686;8.684;2022-09-16T19:02:48;6.28;;;0.95;;
29422;SDS011;16399;51.686;8.684;2022-09-16T19:05:55;4.58;;;1.00;;
29422;SDS011;16399;51.686;8.684;2022-09-16T19:08:58;9.38;;;1.30;;
29422;SDS011;16399;51.686;8.684;2022-09-16T19:12:01;8.48;;;2.60;;
29422;SDS011;16399;51.686;8.684;2022-09-16T19:15:03;8.88;;;1.07;;
29422;SDS011;16399;51.686;8.684;2022-09-16T19:18:06;7.15;;;1.07;;
29422;SDS011;16399;51.686;8.684;2022-09-16T19:21:12;2.98;;;1.00;;
29422;SDS011;16399;51.686;8.684;2022-09-16T19:24:17;5.47;;;1.07;;
29422;SDS011;16399;51.686;8.684;2022-09-16T19:27:21;5.80;;;1.30;;
29422;SDS011;16399;51.686;8.684;2022-09-16T19:30:23;8.18;;;1.10;;
29422;SDS011;16399;51.686;8.684;2022-09-16T19:33:26;5.90;;;1.07;;
29422;SDS011;16399;51.686;8.684;2022-09-16T19:36:29;4.97;;;1.40;;
29422;SDS011;16399;51.686;8.684;2022-09-16T19:39:32;6.78;;;1.50;;
29422;SDS011;16399;51.686;8.684;2022-09-16T19:42:36;5.03;;;1.17;;
29422;SDS011;16399;51.686;8.684;2022-09-16T19:45:38;12.37;;;5.58;;
29422;SDS011;16399;51.686;8.684;2022-09-16T19:48:43;8.95;;;1.30;;
29422;SDS011;16399;51.686;8.684;2022-09-16T19:51:45;4.62;;;1.07;;
29422;SDS011;16399;51.686;8.684;2022-09-16T19:54:48;5.22;;;1.20;;
29422;SDS011;16399;51.686;8.684;2022-09-16T19:57:51;5.53;;;1.20;;
29422;SDS011;16399;51.686;8.684;2022-09-16T20:00:59;8.13;;;1.45;;
29422;SDS011;16399;51.686;8.684;2022-09-16T20:04:10;9.20;;;1.50;;
29422;SDS011;16399;51.686;8.684;2022-09-16T20:07:12;5.40;;;1.22;;
29422;SDS011;16399;51.686;8.684;2022-09-16T20:10:16;8.75;;;1.20;;
29422;SDS011;16399;51.686;8.684;2022-09-16T20:13:19;8.70;;;1.65;;
29422;SDS011;16399;51.686;8.684;2022-09-16T20:16:23;7.78;;;1.67;;
29422;SDS011;16399;51.686;8.684;2022-09-16T20:19:27;11.33;;;3.90;;
29422;SDS011;16399;51.686;8.684;2022-09-16T20:22:30;13.22;;;3.80;;